createdAt,value
2018-09-08T00:49:51.662Z,95623.69
2018-09-08T00:54:54.991Z,95626.02
2018-09-08T00:59:58.325Z,95623.20
2018-09-08T02:31:21.539Z,95683.30
2018-09-08T02:36:49.970Z,95680.17
2018-09-08T02:41:54.063Z,95682.63
2018-09-08T03:50:12.484Z,95678.27
2018-09-08T03:55:15.022Z,95675.39
2018-09-08T05:03:33.196Z,95702.02
2018-09-08T05:08:37.315Z,95713.05
2018-09-08T05:13:41.411Z,95705.71
2018-09-08T05:18:44.748Z,95711.91
2018-09-08T05:23:48.082Z,95718.47
2018-09-08T05:28:51.408Z,95719.48
2018-09-08T05:34:05.080Z,95718.18
2018-09-08T05:39:08.422Z,95720.20
2018-09-08T05:44:11.755Z,95724.59
2018-09-08T05:49:15.089Z,95719.70
2018-09-08T05:54:19.192Z,95719.91
2018-09-08T05:59:22.523Z,95730.49
2018-09-08T06:04:26.627Z,95734.89
2018-09-08T06:09:29.962Z,95737.65
2018-09-08T06:14:33.288Z,95739.45
2018-09-08T06:19:37.462Z,95741.32
2018-09-08T06:24:41.504Z,95743.62
2018-09-08T06:29:44.835Z,95755.10
2018-09-08T06:34:48.166Z,95757.85
2018-09-08T06:39:52.282Z,95753.73
2018-09-08T06:44:55.691Z,95763.75
2018-09-08T06:49:58.974Z,95764.67
2018-09-08T06:55:08.140Z,95760.95
2018-09-08T07:00:11.470Z,95767.14
2018-09-08T07:05:14.799Z,95770.63
2018-09-08T07:10:18.900Z,95775.47
2018-09-08T07:15:22.231Z,95777.98
2018-09-08T07:20:25.563Z,95778.08
2018-09-08T07:25:36.482Z,95782.59
2018-09-08T07:30:39.807Z,95788.41
2018-09-08T07:35:46.411Z,95792.05
2018-09-08T07:40:49.861Z,95797.34
2018-09-08T07:45:54.898Z,95793.23
2018-09-08T07:50:58.199Z,95795.99
2018-09-08T07:56:03.450Z,95798.08
2018-09-08T08:01:08.531Z,95806.92
2018-09-08T08:06:32.701Z,95812.22
2018-09-08T08:11:37.189Z,95813.43
2018-09-08T08:16:49.311Z,95819.80
2018-09-08T08:21:53.548Z,95822.19
2018-09-08T08:26:58.283Z,95819.81
2018-09-08T08:32:01.658Z,95820.03
2018-09-08T08:37:04.996Z,95834.97
2018-09-08T08:42:08.335Z,95831.05
2018-09-08T08:47:11.669Z,95826.55
2018-09-08T08:58:14.683Z,95827.15
2018-09-08T09:03:18.780Z,95824.06
2018-09-08T09:08:22.430Z,95824.06
2018-09-08T09:13:25.548Z,95815.59
2018-09-08T09:18:29.163Z,95817.81
2018-09-08T09:29:18.843Z,95802.17
2018-09-08T09:34:22.166Z,95796.83
2018-09-08T09:39:25.503Z,95792.19
2018-09-08T09:44:28.852Z,95786.72
2018-09-08T09:49:32.174Z,95787.67
2018-09-08T09:54:35.918Z,95786.13
2018-09-08T09:59:39.251Z,95786.06
2018-09-08T10:04:42.772Z,95771.70
2018-09-08T10:09:46.108Z,95775.22
2018-09-08T10:14:50.204Z,95768.51
2018-09-08T10:19:53.634Z,95770.34
2018-09-08T10:25:27.895Z,95767.27
2018-09-08T10:30:31.236Z,95774.77
2018-09-08T10:35:34.579Z,95762.00
2018-09-08T10:40:37.908Z,95754.22
2018-09-08T10:45:44.475Z,95747.57
2018-09-08T10:50:47.849Z,95750.63
2018-09-08T10:55:52.014Z,95753.71
2018-09-08T11:00:55.426Z,95755.52
2018-09-08T11:06:05.721Z,95748.94
2018-09-08T11:11:09.730Z,95746.98
2018-09-08T11:16:21.681Z,95753.14
2018-09-08T11:21:25.596Z,95744.32
2018-09-08T11:26:32.730Z,95740.25
2018-09-08T11:31:36.131Z,95742.47
2018-09-08T11:36:46.242Z,95742.47
2018-09-08T11:41:51.577Z,95746.75
2018-09-08T11:46:56.918Z,95739.69
2018-09-08T11:52:01.880Z,95730.20
2018-09-08T11:57:06.322Z,95728.08
2018-09-08T12:02:10.607Z,95715.27
2018-09-08T12:07:14.435Z,95714.02
2018-09-08T12:12:19.468Z,95711.16
2018-09-08T12:17:23.965Z,95713.06
2018-09-08T12:22:27.536Z,95721.41
2018-09-08T12:27:31.322Z,95716.17
2018-09-08T12:32:35.775Z,95711.44
2018-09-08T12:37:39.899Z,95707.91
2018-09-08T12:42:44.063Z,95705.13
2018-09-08T12:47:47.399Z,95707.23
2018-09-08T12:52:50.738Z,95703.41
2018-09-08T12:57:55.115Z,95691.33
2018-09-08T13:02:58.467Z,95679.86
2018-09-08T13:08:01.844Z,95681.00
2018-09-08T13:13:05.171Z,95672.66
2018-09-08T13:18:08.507Z,95677.45
2018-09-08T13:23:11.834Z,95668.75
2018-09-08T13:28:15.170Z,95665.72
2018-09-08T13:33:19.263Z,95665.91
2018-09-08T13:38:22.602Z,95664.26
2018-09-08T13:43:26.704Z,95659.48
2018-09-08T13:48:30.035Z,95657.86
2018-09-08T13:53:33.367Z,95657.12
2018-09-08T13:58:37.479Z,95648.73
2018-09-08T14:03:53.339Z,95657.41
2018-09-08T14:08:56.672Z,95641.01
2018-09-08T14:14:00.399Z,95642.12
2018-09-08T14:19:04.035Z,95635.83
2018-09-08T14:24:07.370Z,95632.44
2018-09-08T14:29:11.464Z,95632.97
2018-09-08T14:34:14.787Z,95624.86
2018-09-08T14:39:18.122Z,95627.41
2018-09-08T14:44:21.465Z,95625.03
2018-09-08T14:49:24.803Z,95623.01
2018-09-08T14:54:28.128Z,95630.84
2018-09-08T14:59:31.455Z,95632.05
2018-09-08T15:04:34.825Z,95627.94
2018-09-08T15:09:38.154Z,95631.28
2018-09-08T15:14:41.475Z,95627.89
2018-09-08T15:19:44.818Z,95623.18
2018-09-08T15:24:48.150Z,95618.44
2018-09-08T15:29:52.235Z,95621.95
2018-09-08T15:34:55.606Z,95622.70
2018-09-08T15:39:58.990Z,95621.81
2018-09-08T15:45:02.287Z,95627.42
2018-09-08T15:50:05.621Z,95636.84
2018-09-08T15:55:09.711Z,95631.92
2018-09-08T16:00:13.054Z,95637.58
2018-09-08T16:05:22.259Z,95638.30
2018-09-08T16:10:25.587Z,95643.36
2018-09-08T16:15:39.927Z,95640.31
2018-09-08T16:20:43.254Z,95639.95
2018-09-08T16:25:46.584Z,95630.16
2018-09-08T16:30:49.919Z,95624.53
2018-09-08T16:35:56.587Z,95621.37
2018-09-08T16:40:59.920Z,95624.25
2018-09-08T16:46:03.248Z,95622.03
2018-09-08T16:51:07.844Z,95624.16
2018-09-08T16:56:11.571Z,95617.59
2018-09-08T17:01:14.910Z,95628.80
2018-09-08T17:06:31.869Z,95629.27
2018-09-08T17:11:36.163Z,95633.08
2018-09-08T17:22:15.985Z,95633.58
2018-09-08T17:27:19.309Z,95643.40
2018-09-08T17:32:23.488Z,95649.83
2018-09-08T17:37:26.768Z,95649.84
2018-09-08T17:42:30.855Z,95658.84
2018-09-08T17:47:34.193Z,95660.35
2018-09-08T17:52:41.231Z,95657.31
2018-09-08T17:57:44.571Z,95662.50
2018-09-08T18:02:48.200Z,95666.42
2018-09-08T18:07:51.756Z,95669.69
2018-09-08T18:12:55.845Z,95669.13
2018-09-08T18:17:59.167Z,95662.16
2018-09-08T18:23:02.519Z,95672.71
2018-09-08T18:28:05.843Z,95679.61
2018-09-08T18:33:09.172Z,95684.75
2018-09-08T18:38:12.499Z,95689.70
2018-09-08T18:43:15.830Z,95687.34
2018-09-08T18:48:19.981Z,95683.39
2018-09-08T18:53:23.295Z,95692.81
2018-09-08T18:58:27.396Z,95699.64
2018-09-08T19:03:30.723Z,95697.73
2018-09-08T19:08:34.065Z,95695.28
2018-09-08T19:13:38.170Z,95695.29
2018-09-08T19:18:41.508Z,95697.56
2018-09-08T19:23:45.595Z,95696.52
2018-09-08T19:28:48.938Z,95699.41
2018-09-08T19:33:53.035Z,95697.56
2018-09-08T19:38:56.367Z,95702.19
2018-09-08T19:43:59.702Z,95695.84
2018-09-08T19:49:03.821Z,95697.17
2018-09-08T19:54:07.923Z,95699.19
2018-09-08T19:59:11.250Z,95694.13
2018-09-08T20:04:14.596Z,95705.67
2018-09-08T20:09:17.990Z,95702.36
2018-09-08T20:14:21.310Z,95706.97
2018-09-08T20:19:25.425Z,95707.59
2018-09-08T20:24:28.759Z,95709.09
2018-09-08T20:29:32.095Z,95702.23
2018-09-08T20:34:35.417Z,95704.43
2018-09-08T20:39:38.747Z,95707.64
2018-09-08T20:44:42.070Z,95709.25
2018-09-08T20:49:45.407Z,95714.77
2018-09-08T20:54:49.511Z,95723.52
2018-09-08T20:59:52.860Z,95720.56
2018-09-08T21:05:09.347Z,95722.86
2018-09-08T21:10:12.688Z,95723.58
2018-09-08T21:15:16.789Z,95727.76
2018-09-08T21:20:20.144Z,95733.73
2018-09-08T21:25:29.948Z,95728.38
2018-09-08T21:30:33.320Z,95734.34
2018-09-08T21:35:38.442Z,95740.83
2018-09-08T21:40:41.787Z,95735.30
2018-09-08T21:45:45.898Z,95730.73
2018-09-08T21:50:49.994Z,95734.80
2018-09-08T21:55:53.335Z,95739.31
2018-09-08T22:00:56.690Z,95737.23
2018-09-08T22:06:00.018Z,95738.75
2018-09-08T22:11:03.352Z,95733.49
2018-09-08T22:16:06.688Z,95730.74
2018-09-08T22:21:10.019Z,95734.47
2018-09-08T22:26:21.030Z,95734.06
2018-09-08T22:31:24.361Z,95732.25
2018-09-08T22:36:38.412Z,95734.23
2018-09-08T22:41:41.746Z,95732.86
2018-09-08T22:46:45.071Z,95728.36
2018-09-08T22:51:48.416Z,95732.65
2018-09-08T22:56:52.541Z,95733.62
2018-09-08T23:01:58.877Z,95736.70
2018-09-08T23:07:11.735Z,95735.91
2018-09-08T23:12:15.069Z,95727.56
